Time;durP1;ratioP1;P1;durP2;ratioP2;P2;SDS_P1;SDS_P2;PMS_P1;PMS_P2;Temp;Humidity;BMP_temperature;BMP_pressure;BME280_temperature;BME280_humidity;BME280_pressure;Samples;Min_cycle;Max_cycle;Signal;HPM_P1;HPM_P2
2023/05/03 00:00:39;;;;;;;7.68;0.73;;;6.70;99.90;;;;;;4939866;28;20217;-65
2023/05/03 00:03:05;;;;;;;5.07;0.93;;;6.80;99.90;;;;;;4953645;28;20077;-64
2023/05/03 00:05:31;;;;;;;6.47;1.15;;;6.70;99.90;;;;;;4954068;28;20125;-65
2023/05/03 00:07:57;;;;;;;5.63;0.63;;;6.80;99.90;;;;;;4970550;28;20061;-65
2023/05/03 00:10:23;;;;;;;4.72;0.70;;;6.80;99.90;;;;;;4952759;28;20051;-64
2023/05/03 00:12:49;;;;;;;2.17;0.77;;;6.80;99.90;;;;;;4953797;28;20496;-64
2023/05/03 00:15:15;;;;;;;4.75;0.88;;;6.70;99.90;;;;;;4985323;28;20061;-65
2023/05/03 00:17:41;;;;;;;5.45;1.08;;;6.70;99.90;;;;;;4954453;28;20042;-64
2023/05/03 00:20:07;;;;;;;4.90;0.95;;;6.80;99.90;;;;;;4954918;28;20039;-64
2023/05/03 00:22:33;;;;;;;4.68;0.93;;;6.80;99.90;;;;;;4953544;28;20185;-64
2023/05/03 00:24:59;;;;;;;5.93;1.15;;;6.70;99.90;;;;;;4952509;28;20050;-64
2023/05/03 00:27:25;;;;;;;3.42;0.77;;;6.70;99.90;;;;;;4985504;28;20089;-64
2023/05/03 00:29:51;;;;;;;3.20;0.85;;;6.70;99.90;;;;;;4985066;28;20034;-65
2023/05/03 00:32:21;;;;;;;6.28;1.02;;;6.70;99.90;;;;;;4940909;28;20042;-64
2023/05/03 00:34:52;;;;;;;4.18;0.95;;;6.70;99.90;;;;;;4952749;28;20053;-66
2023/05/03 00:37:18;;;;;;;8.43;1.27;;;6.70;99.90;;;;;;4986982;28;20349;-65
2023/05/03 00:39:44;;;;;;;3.88;1.15;;;6.70;99.90;;;;;;4939446;28;20046;-64
2023/05/03 00:42:09;;;;;;;4.30;1.30;;;6.70;99.90;;;;;;4947293;28;20053;-65
2023/05/03 00:44:35;;;;;;;5.35;1.23;;;6.70;99.90;;;;;;4986175;28;20052;-65
2023/05/03 00:47:01;;;;;;;7.60;1.38;;;6.70;99.90;;;;;;4948559;28;20568;-65
2023/05/03 00:49:27;;;;;;;7.20;1.00;;;6.70;99.90;;;;;;4952802;28;20464;-65
2023/05/03 00:51:53;;;;;;;3.13;0.88;;;6.80;99.90;;;;;;4937623;28;20043;-64
2023/05/03 00:54:20;;;;;;;3.90;1.10;;;6.80;99.90;;;;;;4953586;28;20057;-64
2023/05/03 00:56:45;;;;;;;6.43;1.20;;;6.80;99.90;;;;;;4971778;28;20581;-65
2023/05/03 00:59:12;;;;;;;5.53;0.80;;;6.80;99.90;;;;;;4952915;28;20100;-64
2023/05/03 01:01:38;;;;;;;4.70;0.80;;;6.80;99.90;;;;;;4936948;28;20050;-64
2023/05/03 01:04:05;;;;;;;6.15;0.57;;;6.90;99.90;;;;;;4951922;28;20350;-64
2023/05/03 01:06:36;;;;;;;3.83;0.63;;;6.90;99.90;;;;;;4952502;28;20588;-64
2023/05/03 01:09:22;;;;;;;3.13;0.55;;;7.00;99.90;;;;;;4950820;28;20057;-65
2023/05/03 01:12:00;;;;;;;2.00;0.32;;;7.00;99.90;;;;;;4969517;28;20522;-64
2023/05/03 01:14:48;;;;;;;4.57;0.40;;;7.10;99.90;;;;;;4969392;28;20527;-64
2023/05/03 01:17:14;;;;;;;2.40;0.50;;;7.20;99.90;;;;;;4965028;28;20459;-64
2023/05/03 01:19:47;;;;;;;5.00;0.40;;;7.20;99.90;;;;;;4953156;28;20046;-64
2023/05/03 01:22:26;;;;;;;3.30;0.40;;;7.30;99.90;;;;;;4953948;28;20055;-64
2023/05/03 01:25:11;;;;;;;2.67;0.60;;;7.30;99.90;;;;;;4984890;28;20077;-64
2023/05/03 01:27:38;;;;;;;4.32;1.00;;;7.30;99.90;;;;;;4985034;28;20125;-65
2023/05/03 01:30:06;;;;;;;3.63;0.80;;;7.20;99.90;;;;;;4936353;28;20515;-64
2023/05/03 01:32:59;;;;;;;3.85;0.90;;;7.20;99.90;;;;;;4987239;28;20334;-64
2023/05/03 01:35:31;;;;;;;2.83;0.77;;;7.10;99.90;;;;;;4951833;28;20038;-64
2023/05/03 01:37:58;;;;;;;2.55;1.20;;;7.10;99.90;;;;;;4953636;28;20049;-65
2023/05/03 01:40:25;;;;;;;3.03;0.80;;;7.10;99.90;;;;;;4985986;28;20038;-64
2023/05/03 01:42:52;;;;;;;5.40;1.13;;;7.00;99.90;;;;;;4952828;28;20094;-64
2023/05/03 01:45:18;;;;;;;4.18;0.80;;;7.00;99.90;;;;;;4936925;28;20098;-65
2023/05/03 01:47:44;;;;;;;2.70;0.90;;;7.00;99.90;;;;;;4957199;28;20042;-64
2023/05/03 01:50:09;;;;;;;1.25;0.30;;;7.00;99.90;;;;;;4988457;28;20421;-64
2023/05/03 01:52:35;;;;;;;5.72;0.65;;;7.10;99.90;;;;;;4958114;28;20672;-65
2023/05/03 01:55:01;;;;;;;4.00;0.30;;;7.30;99.90;;;;;;4955610;28;20041;-65
2023/05/03 01:57:27;;;;;;;3.63;0.40;;;7.40;99.90;;;;;;4975029;28;20046;-65
2023/05/03 01:59:52;;;;;;;5.20;0.40;;;7.30;99.90;;;;;;4973573;28;20155;-64
2023/05/03 02:02:18;;;;;;;5.57;0.40;;;7.40;99.90;;;;;;4956827;28;20043;-64
2023/05/03 02:04:44;;;;;;;3.72;0.50;;;7.40;99.90;;;;;;4940225;28;20220;-65
2023/05/03 02:07:09;;;;;;;2.83;0.40;;;7.50;99.90;;;;;;4956673;28;20331;-64
2023/05/03 02:09:35;;;;;;;4.65;0.60;;;7.40;99.90;;;;;;4955418;28;20695;-65
2023/05/03 02:12:01;;;;;;;4.18;0.70;;;7.40;99.90;;;;;;4941633;28;20054;-64
2023/05/03 02:14:26;;;;;;;4.53;0.70;;;7.30;99.90;;;;;;4955334;28;20038;-64
2023/05/03 02:16:54;;;;;;;2.13;0.60;;;7.30;99.90;;;;;;4955911;28;20251;-65
2023/05/03 02:19:20;;;;;;;4.50;1.00;;;7.20;99.90;;;;;;4958939;28;20115;-64
2023/05/03 02:21:46;;;;;;;3.83;0.65;;;7.20;99.90;;;;;;4958211;28;20412;-65
2023/05/03 02:24:11;;;;;;;5.43;0.70;;;7.20;99.90;;;;;;4956574;28;20038;-64
2023/05/03 02:26:37;;;;;;;3.92;0.38;;;7.20;99.90;;;;;;4955296;28;20658;-66
2023/05/03 02:29:03;;;;;;;4.80;0.40;;;7.20;99.90;;;;;;4956022;28;20402;-65
2023/05/03 02:31:28;;;;;;;4.20;0.40;;;7.30;99.90;;;;;;4955513;28;20074;-64
2023/05/03 02:33:54;;;;;;;4.03;0.38;;;7.30;99.90;;;;;;4933288;28;20320;-64
2023/05/03 02:36:20;;;;;;;3.38;0.40;;;7.30;99.90;;;;;;4954435;28;20057;-64
2023/05/03 02:38:46;;;;;;;4.22;0.30;;;7.30;99.90;;;;;;4955336;28;20047;-65
2023/05/03 02:41:12;;;;;;;4.97;0.40;;;7.30;99.90;;;;;;4987799;28;20441;-64
2023/05/03 02:43:37;;;;;;;3.53;0.25;;;7.30;99.90;;;;;;4957860;28;20164;-64
2023/05/03 02:46:03;;;;;;;3.88;0.40;;;7.20;99.90;;;;;;4986563;28;20042;-64
2023/05/03 02:48:29;;;;;;;2.17;0.30;;;7.20;99.90;;;;;;4956461;28;20121;-64
2023/05/03 02:50:54;;;;;;;2.53;0.30;;;7.30;99.90;;;;;;4986224;28;20047;-64
2023/05/03 02:53:20;;;;;;;2.90;0.30;;;7.20;99.90;;;;;;4970346;28;20078;-65
2023/05/03 02:55:46;;;;;;;2.90;0.30;;;7.20;99.90;;;;;;4954131;28;20050;-64
2023/05/03 02:58:12;;;;;;;2.53;0.30;;;7.20;99.80;;;;;;4955429;28;20043;-65
2023/05/03 03:00:38;;;;;;;4.78;0.30;;;7.20;95.60;;;;;;4989818;28;20305;-64
2023/05/03 03:03:04;;;;;;;2.20;0.30;;;7.20;91.10;;;;;;4958087;28;20078;-65
2023/05/03 03:05:29;;;;;;;6.80;0.30;;;7.20;86.50;;;;;;4955168;28;20046;-64
2023/05/03 03:07:55;;;;;;;2.80;0.30;;;7.20;66.60;;;;;;4954608;28;20382;-64
2023/05/03 03:10:21;;;;;;;2.55;0.32;;;7.20;40.20;;;;;;4949919;28;20088;-64
2023/05/03 03:12:46;;;;;;;3.60;0.25;;;7.30;8.00;;;;;;4955306;28;20057;-65
2023/05/03 03:15:12;;;;;;;4.00;0.32;;;7.30;29.20;;;;;;4942252;28;20039;-64
2023/05/03 03:17:38;;;;;;;2.97;0.30;;;7.30;31.50;;;;;;4953455;28;20047;-64
2023/05/03 03:20:10;;;;;;;0.85;0.30;;;7.30;51.40;;;;;;4986225;28;21412;-64
2023/05/03 03:22:37;;;;;;;2.70;0.30;;;7.30;68.00;;;;;;4956478;28;20096;-63
2023/05/03 03:25:04;;;;;;;3.05;0.38;;;7.20;79.60;;;;;;4988562;28;20050;-64
2023/05/03 03:27:30;;;;;;;2.58;0.30;;;7.20;86.30;;;;;;4987905;28;20422;-64
2023/05/03 03:29:55;;;;;;;1.92;0.30;;;7.20;82.20;;;;;;4955783;28;20133;-64
2023/05/03 03:32:21;;;;;;;1.90;0.35;;;7.20;92.20;;;;;;4954170;28;20057;-63
2023/05/03 03:34:47;;;;;;;3.22;0.30;;;7.20;99.90;;;;;;4940302;28;20525;-64
2023/05/03 03:37:13;;;;;;;1.95;0.40;;;7.20;99.90;;;;;;4955077;28;20126;-63
2023/05/03 03:39:39;;;;;;;2.00;0.30;;;7.20;99.90;;;;;;4956068;28;20333;-65
2023/05/03 03:42:06;;;;;;;1.33;0.30;;;7.20;99.90;;;;;;4953896;28;20122;-64
2023/05/03 03:44:31;;;;;;;3.85;0.40;;;7.20;99.90;;;;;;4987433;28;20069;-64
2023/05/03 03:46:57;;;;;;;6.63;0.60;;;7.20;99.90;;;;;;4985999;28;20125;-64
2023/05/03 03:49:23;;;;;;;5.43;0.38;;;7.20;99.90;;;;;;4953905;28;20397;-64
2023/05/03 03:51:48;;;;;;;3.95;0.30;;;7.20;99.90;;;;;;4969673;28;20270;-64
2023/05/03 03:54:14;;;;;;;2.58;0.50;;;7.20;99.90;;;;;;4954054;28;20439;-64
2023/05/03 03:56:40;;;;;;;1.38;0.22;;;7.20;99.90;;;;;;4955229;28;20630;-64
2023/05/03 03:59:06;;;;;;;3.58;0.20;;;7.20;99.90;;;;;;4949039;28;20325;-64
2023/05/03 04:01:32;;;;;;;4.75;0.40;;;7.30;99.90;;;;;;4985513;28;20042;-64
2023/05/03 04:03:59;;;;;;;5.65;0.30;;;7.30;67.10;;;;;;4954512;28;20078;-64
2023/05/03 04:06:25;;;;;;;3.67;0.30;;;7.30;62.10;;;;;;4968373;28;20514;-64
2023/05/03 04:08:51;;;;;;;1.98;0.30;;;7.30;69.70;;;;;;4953450;28;20816;-64
2023/05/03 04:11:17;;;;;;;4.07;0.40;;;7.30;74.70;;;;;;4935681;28;20059;-64
2023/05/03 04:13:43;;;;;;;2.85;0.40;;;7.40;65.90;;;;;;4936656;28;20037;-64
2023/05/03 04:16:09;;;;;;;1.33;0.20;;;7.40;70.80;;;;;;4953449;28;20137;-64
2023/05/03 04:18:34;;;;;;;2.20;0.30;;;7.40;94.10;;;;;;4952040;28;20556;-64
2023/05/03 04:21:00;;;;;;;1.70;0.20;;;7.40;99.90;;;;;;4952574;28;20038;-64
2023/05/03 04:23:26;;;;;;;2.55;0.20;;;7.50;99.90;;;;;;4937562;28;20046;-64
2023/05/03 04:25:52;;;;;;;2.53;0.35;;;7.50;99.90;;;;;;4969009;28;20108;-64
2023/05/03 04:28:19;;;;;;;5.32;0.30;;;7.60;99.90;;;;;;4985359;28;20549;-64
2023/05/03 04:30:46;;;;;;;3.00;0.20;;;7.60;99.90;;;;;;4954545;28;20444;-64
2023/05/03 04:33:12;;;;;;;3.22;0.20;;;7.60;99.90;;;;;;4970182;28;20039;-64
2023/05/03 04:35:39;;;;;;;2.88;0.20;;;7.70;99.90;;;;;;4937803;28;20465;-65
2023/05/03 04:38:05;;;;;;;4.25;0.30;;;7.70;99.90;;;;;;4952809;28;20126;-64
2023/05/03 04:40:30;;;;;;;3.17;0.30;;;7.70;99.90;;;;;;4968617;28;20516;-65
2023/05/03 04:42:56;;;;;;;2.67;0.20;;;7.70;99.90;;;;;;4984685;28;20039;-64
2023/05/03 04:45:22;;;;;;;2.08;0.30;;;7.70;99.90;;;;;;4932746;28;20042;-64
2023/05/03 04:47:48;;;;;;;1.27;0.28;;;7.70;93.50;;;;;;4984411;28;20043;-63
2023/05/03 04:50:15;;;;;;;3.13;0.40;;;7.70;81.60;;;;;;4967701;28;20398;-64
2023/05/03 04:52:41;;;;;;;3.80;0.40;;;7.80;41.10;;;;;;4954300;28;20039;-63
2023/05/03 04:55:07;;;;;;;5.90;0.30;;;7.80;1.30;;;;;;4984128;28;20403;-65
2023/05/03 04:57:33;;;;;;;1.80;0.20;;;7.80;23.80;;;;;;4968229;28;20332;-65
2023/05/03 04:59:59;;;;;;;2.15;0.20;;;7.80;48.30;;;;;;4953133;28;20046;-64
2023/05/03 05:02:26;;;;;;;2.78;0.30;;;7.80;90.30;;;;;;4936088;28;20319;-64
2023/05/03 05:04:52;;;;;;;3.53;0.20;;;7.90;92.60;;;;;;4984531;28;20358;-64
2023/05/03 05:07:18;;;;;;;1.75;0.20;;;7.80;80.80;;;;;;4967912;28;20108;-65
2023/05/03 05:09:44;;;;;;;2.95;0.20;;;7.90;29.00;;;;;;4965640;28;20118;-65
2023/05/03 05:12:10;;;;;;;2.35;0.20;;;7.90;21.20;;;;;;4938464;28;20046;-64
2023/05/03 05:14:35;;;;;;;3.53;0.50;;;7.90;33.40;;;;;;4984022;28;20478;-65
2023/05/03 05:17:01;;;;;;;3.45;0.25;;;7.90;52.20;;;;;;4938383;28;20251;-66
2023/05/03 05:19:27;;;;;;;4.55;0.30;;;8.00;62.80;;;;;;4968744;28;20057;-65
2023/05/03 05:21:52;;;;;;;2.85;0.22;;;8.00;50.50;;;;;;4951324;28;20097;-64
2023/05/03 05:24:18;;;;;;;4.32;0.30;;;8.00;46.80;;;;;;4937570;28;20039;-64
2023/05/03 05:26:44;;;;;;;2.95;0.22;;;8.00;1.00;;;;;;4935249;28;20470;-64
2023/05/03 05:29:10;;;;;;;3.00;0.32;;;8.00;1.00;;;;;;4984530;28;20220;-65
2023/05/03 05:31:36;;;;;;;3.30;0.20;;;7.90;1.00;;;;;;4955078;28;20045;-66
2023/05/03 05:34:02;;;;;;;2.22;0.30;;;8.00;1.00;;;;;;4953819;28;20045;-64
2023/05/03 05:36:29;;;;;;;4.28;0.38;;;8.00;2.00;;;;;;4938730;28;20046;-64
2023/05/03 05:38:55;;;;;;;3.00;0.30;;;8.00;1.00;;;;;;4968574;28;20329;-64
2023/05/03 05:41:21;;;;;;;2.45;0.30;;;7.90;1.00;;;;;;4939851;28;21477;-64
2023/05/03 05:43:47;;;;;;;2.65;0.30;;;8.00;1.00;;;;;;4952232;28;20080;-64
2023/05/03 05:46:13;;;;;;;4.22;0.30;;;8.00;1.00;;;;;;4936474;28;20493;-64
2023/05/03 05:48:40;;;;;;;4.32;0.40;;;7.90;1.00;;;;;;4938822;28;20050;-64
2023/05/03 05:51:06;;;;;;;4.57;0.20;;;8.00;1.00;;;;;;4969275;28;20057;-64
2023/05/03 05:53:32;;;;;;;2.55;0.20;;;8.10;1.00;;;;;;4946999;28;20042;-65
2023/05/03 05:55:57;;;;;;;2.25;0.30;;;8.20;1.00;;;;;;4968078;28;20455;-64
2023/05/03 05:58:23;;;;;;;2.75;0.20;;;8.30;1.00;;;;;;4967022;28;20046;-64
2023/05/03 06:00:50;;;;;;;2.05;0.30;;;8.30;1.00;;;;;;4937485;28;20050;-64
2023/05/03 06:03:16;;;;;;;2.40;0.20;;;8.30;1.00;;;;;;4935725;28;20152;-66
2023/05/03 06:05:41;;;;;;;1.95;0.10;;;8.40;1.00;;;;;;4948404;28;20064;-64
2023/05/03 06:08:08;;;;;;;3.10;0.30;;;8.50;1.00;;;;;;4932813;28;20666;-65
2023/05/03 06:10:33;;;;;;;1.65;0.22;;;8.60;1.00;;;;;;4950631;28;20783;-65
2023/05/03 06:12:59;;;;;;;4.25;0.20;;;8.60;1.00;;;;;;4982689;28;20057;-65
2023/05/03 06:15:25;;;;;;;1.60;0.20;;;8.70;1.00;;;;;;4934057;28;20265;-65
2023/05/03 06:17:51;;;;;;;1.90;0.20;;;8.70;1.00;;;;;;4967908;28;20285;-65
2023/05/03 06:20:17;;;;;;;3.10;0.20;;;8.80;1.00;;;;;;4949819;28;20485;-66
2023/05/03 06:22:43;;;;;;;1.13;0.30;;;8.80;99.90;;;;;;4952081;28;20166;-65
2023/05/03 06:25:13;;;;;;;1.50;0.15;;;8.80;99.90;;;;;;4951098;28;20043;-65
2023/05/03 06:27:38;;;;;;;1.60;0.20;;;8.90;1.00;;;;;;4936284;28;20532;-66
2023/05/03 06:30:05;;;;;;;2.80;0.20;;;8.90;99.90;;;;;;4953270;28;20055;-64
2023/05/03 06:32:30;;;;;;;2.25;0.20;;;9.00;99.90;;;;;;4938133;28;20046;-65
2023/05/03 06:34:58;;;;;;;2.47;0.13;;;9.00;99.90;;;;;;4955677;28;20034;-65
2023/05/03 06:37:25;;;;;;;2.42;0.20;;;9.00;99.90;;;;;;4975052;28;20122;-64
2023/05/03 06:39:50;;;;;;;3.72;0.20;;;9.00;99.90;;;;;;4951804;28;20045;-65
2023/05/03 06:42:16;;;;;;;3.22;0.30;;;9.00;99.90;;;;;;4939117;28;20544;-64
2023/05/03 06:44:42;;;;;;;1.50;0.15;;;9.00;99.90;;;;;;4938307;28;20548;-64
2023/05/03 06:47:08;;;;;;;1.85;0.25;;;9.00;1.00;;;;;;4970736;28;20053;-64
2023/05/03 06:49:34;;;;;;;2.15;0.25;;;9.10;99.90;;;;;;4957094;28;20043;-64
2023/05/03 06:51:59;;;;;;;3.33;0.20;;;9.10;99.90;;;;;;4955921;28;20361;-64
2023/05/03 06:54:25;;;;;;;2.70;0.20;;;9.10;99.90;;;;;;4938297;28;20250;-63
2023/05/03 06:56:51;;;;;;;2.20;0.20;;;9.10;99.90;;;;;;4972104;28;20050;-65
2023/05/03 06:59:16;;;;;;;3.80;0.20;;;9.10;99.90;;;;;;4968046;28;20343;-64
2023/05/03 07:01:42;;;;;;;5.25;0.30;;;9.10;99.90;;;;;;4939428;28;20057;-64
2023/05/03 07:04:08;;;;;;;4.57;0.38;;;9.10;99.90;;;;;;4938148;28;20108;-64
2023/05/03 07:06:34;;;;;;;4.75;0.20;;;9.20;99.90;;;;;;4954471;28;20105;-64
2023/05/03 07:08:59;;;;;;;3.28;0.20;;;9.30;99.90;;;;;;4971154;28;20089;-64
2023/05/03 07:11:25;;;;;;;2.00;0.20;;;9.30;99.90;;;;;;4939588;28;20126;-65
2023/05/03 07:13:53;;;;;;;5.15;0.17;;;9.40;99.90;;;;;;4957473;28;20054;-64
2023/05/03 07:16:19;;;;;;;4.03;0.20;;;9.50;99.90;;;;;;4938989;28;20453;-64
2023/05/03 07:18:45;;;;;;;2.45;0.10;;;9.50;99.90;;;;;;4985866;28;20050;-64
2023/05/03 07:21:14;;;;;;;2.50;0.10;;;9.60;99.90;;;;;;4955308;28;20158;-64
2023/05/03 07:23:40;;;;;;;4.68;0.20;;;9.70;99.90;;;;;;4996893;28;20042;-64
2023/05/03 07:26:06;;;;;;;2.35;0.20;;;9.80;99.90;;;;;;4952309;28;20072;-63
2023/05/03 07:28:33;;;;;;;0.93;0.10;;;9.80;99.90;;;;;;4969419;28;20524;-65
2023/05/03 07:30:59;;;;;;;3.85;0.20;;;9.80;99.90;;;;;;4999721;28;20072;-65
2023/05/03 07:33:25;;;;;;;1.88;0.25;;;9.80;99.90;;;;;;4969354;28;20053;-64
2023/05/03 07:35:50;;;;;;;3.03;0.20;;;9.70;99.90;;;;;;4952257;28;20105;-63
2023/05/03 07:38:17;;;;;;;2.42;0.13;;;9.80;99.90;;;;;;4954928;28;20046;-65
2023/05/03 07:40:42;;;;;;;2.45;0.20;;;9.80;99.90;;;;;;4999328;28;20122;-63
2023/05/03 07:43:09;;;;;;;1.88;0.22;;;9.80;99.90;;;;;;4984009;28;20472;-67
2023/05/03 07:45:35;;;;;;;2.20;0.20;;;9.80;99.90;;;;;;4950441;28;20069;-65
2023/05/03 07:48:03;;;;;;;3.58;0.20;;;9.70;99.90;;;;;;4986829;28;20065;-64
2023/05/03 07:50:29;;;;;;;1.90;0.10;;;9.60;99.90;;;;;;4961971;28;20038;-66
2023/05/03 07:52:55;;;;;;;1.05;0.13;;;9.70;99.90;;;;;;4983971;28;20031;-63
2023/05/03 07:55:21;;;;;;;2.40;0.40;;;9.80;99.90;;;;;;4949993;28;20560;-65
2023/05/03 07:57:47;;;;;;;5.25;0.30;;;9.90;99.90;;;;;;4965471;28;20038;-64
2023/05/03 08:00:13;;;;;;;3.05;0.20;;;10.00;99.90;;;;;;4966213;28;20065;-65
2023/05/03 08:02:40;;;;;;;1.10;0.20;;;10.00;99.90;;;;;;4966272;28;20046;-64
2023/05/03 08:05:06;;;;;;;2.35;0.15;;;10.00;99.90;;;;;;4965688;28;20746;-64
2023/05/03 08:07:32;;;;;;;2.40;0.20;;;10.00;99.90;;;;;;4950768;28;20039;-64
2023/05/03 08:09:58;;;;;;;2.22;0.20;;;10.00;99.90;;;;;;4966063;28;20901;-63
2023/05/03 08:12:25;;;;;;;2.55;0.20;;;10.10;99.90;;;;;;4951189;28;20061;-64
2023/05/03 08:14:55;;;;;;;3.05;0.20;;;10.20;99.90;;;;;;4950966;28;20454;-66
2023/05/03 08:17:22;;;;;;;2.25;0.30;;;10.40;99.90;;;;;;4965657;28;20054;-64
2023/05/03 08:19:48;;;;;;;5.10;0.45;;;10.40;99.90;;;;;;4966704;28;20129;-63
2023/05/03 08:22:15;;;;;;;2.03;0.30;;;10.50;99.90;;;;;;4967884;28;20204;-64
2023/05/03 08:24:42;;;;;;;2.15;0.30;;;10.40;99.90;;;;;;4999294;28;20050;-64
2023/05/03 08:27:09;;;;;;;2.13;0.20;;;10.50;99.90;;;;;;4986081;28;20047;-64
2023/05/03 08:29:38;;;;;;;3.72;0.20;;;10.60;99.90;;;;;;4968270;28;20049;-64
2023/05/03 08:32:04;;;;;;;1.20;0.20;;;10.70;99.90;;;;;;4952856;28;20101;-64
2023/05/03 08:34:31;;;;;;;3.22;0.30;;;10.80;99.90;;;;;;4984829;28;20051;-64
2023/05/03 08:36:57;;;;;;;1.75;0.20;;;10.90;99.90;;;;;;4966115;28;20038;-64
2023/05/03 08:39:26;;;;;;;4.25;0.20;;;10.90;99.90;;;;;;4981522;28;20047;-64
2023/05/03 08:41:53;;;;;;;3.90;0.70;;;10.90;99.90;;;;;;4951025;28;20043;-65
2023/05/03 08:44:22;;;;;;;3.45;1.10;;;11.00;99.90;;;;;;4949288;28;20052;-64
2023/05/03 08:46:48;;;;;;;2.15;0.20;;;11.10;99.90;;;;;;4998658;28;20042;-63
2023/05/03 08:49:14;;;;;;;3.00;0.40;;;11.10;99.90;;;;;;4967465;28;20138;-66
2023/05/03 08:51:44;;;;;;;3.70;0.30;;;11.30;99.90;;;;;;4944392;28;20061;-64
2023/05/03 08:54:11;;;;;;;4.32;0.60;;;11.40;99.90;;;;;;4970639;28;20114;-63
2023/05/03 08:56:42;;;;;;;1.92;0.20;;;11.50;99.90;;;;;;4969945;28;20053;-64
2023/05/03 08:59:10;;;;;;;1.45;0.20;;;11.60;99.90;;;;;;4966293;28;20682;-64
2023/05/03 09:01:37;;;;;;;3.67;0.30;;;11.70;99.90;;;;;;4967325;28;20042;-64
2023/05/03 09:04:03;;;;;;;2.88;0.28;;;11.70;99.90;;;;;;4968564;28;20378;-64
2023/05/03 09:06:47;;;;;;;2.13;0.30;;;11.80;99.90;;;;;;4952725;28;20057;-64
2023/05/03 09:09:13;;;;;;;3.58;0.77;;;11.90;99.90;;;;;;5001170;28;20623;-65
2023/05/03 09:11:38;;;;;;;3.20;0.20;;;12.00;99.90;;;;;;4965711;28;20129;-64
2023/05/03 09:14:09;;;;;;;3.58;0.38;;;12.10;99.90;;;;;;4997863;28;20497;-63
2023/05/03 09:16:34;;;;;;;2.20;0.30;;;12.10;99.90;;;;;;4966822;28;20057;-64
2023/05/03 09:19:03;;;;;;;2.63;0.20;;;12.10;99.90;;;;;;4965891;28;20042;-63
2023/05/03 09:21:30;;;;;;;4.30;0.40;;;12.20;99.90;;;;;;4950990;28;20157;-65
2023/05/03 09:23:58;;;;;;;3.60;0.20;;;12.20;99.90;;;;;;4999939;28;20046;-66
2023/05/03 09:26:31;;;;;;;2.20;0.20;;;12.40;99.90;;;;;;4968764;28;20081;-65
2023/05/03 09:29:02;;;;;;;3.78;0.20;;;12.30;99.90;;;;;;4998911;28;20125;-64
2023/05/03 09:31:33;;;;;;;2.47;0.20;;;12.10;87.80;;;;;;4952486;28;20510;-64
2023/05/03 09:33:59;;;;;;;2.45;0.30;;;12.30;99.90;;;;;;4952964;28;20541;-63
2023/05/03 09:36:29;;;;;;;2.60;0.50;;;12.40;99.90;;;;;;4967821;28;20062;-63
2023/05/03 09:38:54;;;;;;;1.88;0.20;;;12.20;99.90;;;;;;4962235;28;20053;-64
2023/05/03 09:41:28;;;;;;;2.20;0.20;;;12.30;98.40;;;;;;4948069;28;20419;-64
2023/05/03 09:43:55;;;;;;;5.75;0.30;;;12.40;99.90;;;;;;4983788;28;20045;-64
2023/05/03 09:46:23;;;;;;;2.75;0.40;;;12.40;99.90;;;;;;4966739;28;20058;-64
2023/05/03 09:48:49;;;;;;;4.72;0.28;;;12.50;99.90;;;;;;4947006;28;20547;-64
2023/05/03 09:51:15;;;;;;;4.30;0.38;;;12.50;99.90;;;;;;4951515;28;20039;-64
2023/05/03 09:53:41;;;;;;;1.52;0.10;;;12.40;98.30;;;;;;4946839;28;20096;-67
2023/05/03 09:56:11;;;;;;;2.30;0.20;;;12.60;95.20;;;;;;4978637;28;20046;-65
2023/05/03 09:58:38;;;;;;;4.72;0.28;;;12.40;85.20;;;;;;4967034;28;20120;-64
2023/05/03 10:01:04;;;;;;;3.38;0.20;;;12.40;92.70;;;;;;4983060;28;20446;-67
2023/05/03 10:03:40;;;;;;;0.80;0.20;;;12.50;99.90;;;;;;4951793;28;20054;-65
2023/05/03 10:06:30;;;;;;;3.83;0.20;;;12.50;79.70;;;;;;5000208;28;20042;-65
2023/05/03 10:09:04;;;;;;;4.38;0.30;;;12.50;89.30;;;;;;4985758;28;20065;-67
2023/05/03 10:11:33;;;;;;;4.00;0.20;;;12.20;58.10;;;;;;4971323;28;20066;-66
2023/05/03 10:14:00;;;;;;;2.45;0.22;;;12.20;71.90;;;;;;4964940;28;20633;-64
2023/05/03 10:16:31;;;;;;;3.33;0.20;;;12.30;90.60;;;;;;4972665;28;20090;-65
2023/05/03 10:19:18;;;;;;;4.57;0.30;;;12.30;97.50;;;;;;4973857;28;20125;-65
2023/05/03 10:22:01;;;;;;;1.45;0.20;;;12.40;92.20;;;;;;4955610;28;20046;-66
2023/05/03 10:24:26;;;;;;;1.75;0.17;;;12.40;92.80;;;;;;4982355;28;20114;-66
2023/05/03 10:26:55;;;;;;;2.55;0.30;;;12.20;86.50;;;;;;4935564;28;20131;-65
2023/05/03 10:29:33;;;;;;;4.25;0.20;;;12.00;94.90;;;;;;4965590;28;20396;-64
2023/05/03 10:32:03;;;;;;;2.40;0.20;;;12.10;99.90;;;;;;4966961;28;20655;-64
2023/05/03 10:34:33;;;;;;;3.15;0.30;;;12.10;99.90;;;;;;4987396;28;21118;-63
2023/05/03 10:37:08;;;;;;;2.83;0.20;;;12.10;99.90;;;;;;4941275;28;20104;-63
2023/05/03 10:39:34;;;;;;;2.28;0.20;;;12.00;99.90;;;;;;4982769;28;20081;-65
2023/05/03 10:42:07;;;;;;;3.92;0.30;;;11.80;99.90;;;;;;4939368;28;20030;-63
2023/05/03 10:44:38;;;;;;;5.50;0.40;;;11.80;99.90;;;;;;4957130;28;20432;-64
2023/05/03 10:47:17;;;;;;;4.30;0.25;;;11.70;99.90;;;;;;4970969;28;20045;-64
2023/05/03 10:49:44;;;;;;;4.68;0.50;;;11.70;99.90;;;;;;4987503;28;20045;-64
2023/05/03 10:52:35;;;;;;;2.97;0.20;;;11.70;99.90;;;;;;4957001;28;20043;-64
2023/05/03 10:55:01;;;;;;;3.63;0.40;;;11.50;99.90;;;;;;4956768;28;20045;-64
2023/05/03 10:57:31;;;;;;;3.63;0.50;;;11.40;99.90;;;;;;4939567;28;20545;-65
2023/05/03 10:59:58;;;;;;;4.80;0.45;;;11.30;99.90;;;;;;4939257;28;20254;-65
2023/05/03 11:02:32;;;;;;;3.30;0.25;;;11.30;99.90;;;;;;4970987;28;20042;-65
2023/05/03 11:05:03;;;;;;;2.92;0.30;;;11.40;99.90;;;;;;4938786;28;20046;-66
2023/05/03 11:07:30;;;;;;;4.22;0.20;;;11.30;99.90;;;;;;4987385;28;20146;-64
2023/05/03 11:09:56;;;;;;;3.03;0.40;;;11.30;99.90;;;;;;4935014;28;20050;-64
2023/05/03 11:12:22;;;;;;;2.63;0.30;;;11.50;99.90;;;;;;4985681;28;20057;-66
2023/05/03 11:14:51;;;;;;;3.17;0.20;;;11.50;99.90;;;;;;4950880;28;20493;-65
2023/05/03 11:17:16;;;;;;;3.65;0.40;;;11.60;99.90;;;;;;4941980;28;20059;-65
2023/05/03 11:19:43;;;;;;;2.03;0.50;;;11.80;99.90;;;;;;4985945;28;20179;-65
2023/05/03 11:22:11;;;;;;;4.35;0.43;;;12.20;99.90;;;;;;4953345;28;20057;-66
2023/05/03 11:24:37;;;;;;;4.70;0.50;;;12.40;99.90;;;;;;4939519;28;20343;-64
2023/05/03 11:27:02;;;;;;;2.15;0.40;;;12.70;99.90;;;;;;4955972;28;20058;-64
2023/05/03 11:29:28;;;;;;;2.08;0.30;;;13.00;99.90;;;;;;4952213;28;20547;-64
2023/05/03 11:31:54;;;;;;;1.80;0.30;;;13.30;99.90;;;;;;4956637;28;20042;-64
2023/05/03 11:34:20;;;;;;;2.88;0.43;;;13.40;99.90;;;;;;4972037;28;20097;-64
2023/05/03 11:36:46;;;;;;;4.72;0.32;;;13.40;99.90;;;;;;4954029;28;20046;-63
2023/05/03 11:39:13;;;;;;;2.10;0.20;;;13.30;99.90;;;;;;4971337;28;20046;-64
2023/05/03 11:41:40;;;;;;;4.97;0.68;;;13.50;99.90;;;;;;4956326;28;20417;-64
2023/05/03 11:44:06;;;;;;;4.75;0.25;;;13.60;99.90;;;;;;4988843;28;20194;-64
2023/05/03 11:46:35;;;;;;;3.50;0.40;;;13.70;99.90;;;;;;4971469;28;20047;-64
2023/05/03 11:49:02;;;;;;;3.08;0.30;;;13.80;99.90;;;;;;4954982;28;20042;-64
2023/05/03 11:51:28;;;;;;;2.95;0.20;;;13.90;99.90;;;;;;4953797;28;20050;-65
2023/05/03 11:53:55;;;;;;;2.45;0.30;;;14.10;99.90;;;;;;4970781;28;20069;-65
2023/05/03 11:56:21;;;;;;;3.50;0.30;;;14.30;99.90;;;;;;4954238;28;20097;-64
2023/05/03 11:58:58;;;;;;;2.75;0.30;;;14.10;99.90;;;;;;4956054;28;20101;-64
2023/05/03 12:01:25;;;;;;;2.03;0.32;;;14.20;99.90;;;;;;4938227;28;20073;-64
2023/05/03 12:04:01;;;;;;;2.60;0.35;;;14.30;99.90;;;;;;4954889;28;20050;-64
2023/05/03 12:06:28;;;;;;;3.78;0.50;;;14.30;99.90;;;;;;4938649;28;20312;-64
2023/05/03 12:08:55;;;;;;;2.95;0.30;;;14.20;99.90;;;;;;4985942;28;20496;-65
2023/05/03 12:11:21;;;;;;;2.70;0.25;;;14.30;99.90;;;;;;4954235;28;20047;-64
2023/05/03 12:13:57;;;;;;;2.58;0.32;;;14.20;99.90;;;;;;4990864;28;20243;-64
2023/05/03 12:16:23;;;;;;;3.22;0.25;;;14.00;99.90;;;;;;4985584;28;20278;-65
2023/05/03 12:19:01;;;;;;;2.10;0.20;;;13.80;99.90;;;;;;4969342;28;20150;-64
2023/05/03 12:21:44;;;;;;;2.08;0.22;;;13.80;99.90;;;;;;4955039;28;20050;-65
2023/05/03 12:24:11;;;;;;;3.42;0.30;;;13.80;99.90;;;;;;4969812;28;20397;-64
2023/05/03 12:26:36;;;;;;;2.10;0.30;;;13.60;99.70;;;;;;4953809;28;20457;-64
2023/05/03 12:29:02;;;;;;;4.55;0.30;;;13.90;99.90;;;;;;4953607;28;20459;-64
2023/05/03 12:31:28;;;;;;;2.63;0.28;;;14.00;99.90;;;;;;4984679;28;20043;-64
2023/05/03 12:33:54;;;;;;;6.28;0.60;;;13.90;99.90;;;;;;4986995;28;20046;-64
2023/05/03 12:36:20;;;;;;;2.42;0.22;;;13.80;99.90;;;;;;4938974;28;20038;-64
2023/05/03 12:38:47;;;;;;;2.17;0.30;;;14.00;94.90;;;;;;4980886;28;20117;-64
2023/05/03 12:41:14;;;;;;;3.08;0.40;;;14.00;97.10;;;;;;4988716;28;21064;-65
2023/05/03 12:43:40;;;;;;;2.08;0.20;;;14.10;95.70;;;;;;4956496;28;20053;-63
2023/05/03 12:46:06;;;;;;;2.90;0.20;;;14.30;97.50;;;;;;4952305;28;20043;-64
2023/05/03 12:48:32;;;;;;;2.22;0.30;;;14.30;96.60;;;;;;4953701;28;20692;-64
2023/05/03 12:50:58;;;;;;;4.30;0.40;;;14.30;90.20;;;;;;4994209;28;20039;-65
2023/05/03 12:53:25;;;;;;;2.88;0.32;;;14.30;78.60;;;;;;4936992;28;20094;-64